Cocoa, FL

12:18 AM EDT on August 31, 2014 (GMT -0400)
Indian River Club | Change Station
CLOSE
Current Station
Personal Weather Station
Location: Rockledge, FL
Elevation: 12 ft
Nearby Weather Stations

Elev 12 ft 28.33 °N, 80.72 °W | Updated 31 seconds ago

Clear
Clear
82.8 °F
Feels Like 90 °F
N
3.0
Wind Variable Wind from South
Gusts 5.0 mph

Today
High -- | Low -- °F
--% Chance of Precip.
Yesterday
High -- | Low -- °F
Precip. -- in
7:00 AM 7:45 PM
Waxing Crescent, 27% visible
Pressure 30.16 in
Visibility 10.0 miles
Clouds Few 10000 ft
Heat Index 90 °F
Dew Point 75 °F
Humidity 78%
Rainfall 0.00 in
Snow Depth Not available.
UV 0 out of 12
Pollen 7.20 out of 12
Air Quality Not available.
Flu Activity Not available.
METAR KCOF 310358Z AUTO 14004KT 10SM FEW100 28/23 A3014 RMK AO2 SLP211 T02830229

More Conditions Fewer Conditions

Pressure 30.16 in
Visibility 10.0 miles
Clouds Few 10000 ft
Heat Index 90 °F
Dew Point 75 °F
Humidity 78%
Rainfall 0.00 in
Snow Depth Not available.
UV 0 out of 12
Pollen 7.20 out of 12
Air Quality Not available.
Flu Activity Not available.
METAR KCOF 310358Z AUTO 14004KT 10SM FEW100 28/23 A3014 RMK AO2 SLP211 T02830229

More Conditions Fewer Conditions

Nowcast | as of 10:37 PM EDT on August 30, 2014

Isolated showers over the Atlantic will move toward the coast south of the cape overnight. A few showers may move onshore along the Treasure Coast beaches after midnight and tend to dissipate as they move further onshore. Additional details...including graphics are available online at: http://www.Srh.NOAA.Gov/mlb/blog.Php

×

10-Day Weather Forecast

Almanac

Astronomy

Aug. 31, 2014 Rise Set
Actual Time 7:00 AM EDT 7:45 PM EDT
Civil Twilight 6:36 AM EDT 8:09 PM EDT
Nautical Twilight 6:08 AM EDT 8:37 PM EDT
Astronomical Twilight 5:39 AM EDT 9:06 PM EDT
Moon 12:15 PM EDT 11:30 PM EDT
Length of Visible Light 13h 32m
Length of Day
12h 44m
Tomorrow will be 1m 37s shorter.
Waxing Crescent, 27% of the Moon is Illuminated
Today
Waxing Crescent
Sep 2
First Quarter
Sep 8
Full
Sep 15
Last Quarter
Sep 24
New

Yesterday's Extremes

State Highs State Lows

Community

WunderPhotos

Upload Photos

1,748,779 photos uploaded!

Nearby

Snow Depth

Station Depth Elevation
No new snow has been reported.

Earthquake Activity

City Distance Mag. Time & Date
No recent earthquake activity has been reported nearby.
Minimum magnitude displayed is 2.5.

Coastal Water Temperatures

Place Temperature
Trident Pier, FL 84.9 °F
Fort Myers, FL 88.0 °F
Lake Worth, FL 87.1 °F

Nearby Weather Stations